sensor_id;sensor_type;location;lat;lon;timestamp;pressure;altitude;pressure_sealevel;temperature;humidity
57847;BME280;43675;50.030;21.952;2023-02-28T00:02:04;99981.20;;;-3.82;66.92
57847;BME280;43675;50.030;21.952;2023-02-28T00:04:31;99983.55;;;-3.86;67.23
57847;BME280;43675;50.030;21.952;2023-02-28T00:06:57;99984.73;;;-3.89;67.38
57847;BME280;43675;50.030;21.952;2023-02-28T00:09:24;99989.17;;;-3.90;67.62
57847;BME280;43675;50.030;21.952;2023-02-28T00:11:50;99987.77;;;-3.93;67.80
57847;BME280;43675;50.030;21.952;2023-02-28T00:14:17;99990.36;;;-3.95;67.90
57847;BME280;43675;50.030;21.952;2023-02-28T00:16:44;99990.73;;;-3.98;68.20
57847;BME280;43675;50.030;21.952;2023-02-28T00:19:10;99997.52;;;-4.01;68.41
57847;BME280;43675;50.030;21.952;2023-02-28T00:21:37;100001.95;;;-4.04;68.56
57847;BME280;43675;50.030;21.952;2023-02-28T00:24:04;100008.05;;;-4.07;68.74
57847;BME280;43675;50.030;21.952;2023-02-28T00:26:30;100009.64;;;-4.10;68.88
57847;BME280;43675;50.030;21.952;2023-02-28T00:28:57;100005.41;;;-4.15;68.88
57847;BME280;43675;50.030;21.952;2023-02-28T00:31:23;100003.63;;;-4.21;69.28
57847;BME280;43675;50.030;21.952;2023-02-28T00:33:50;100000.85;;;-4.24;69.37
57847;BME280;43675;50.030;21.952;2023-02-28T00:36:17;100002.89;;;-4.26;69.54
57847;BME280;43675;50.030;21.952;2023-02-28T00:38:43;99999.47;;;-4.27;69.80
57847;BME280;43675;50.030;21.952;2023-02-28T00:41:10;99996.27;;;-4.29;69.76
57847;BME280;43675;50.030;21.952;2023-02-28T00:43:38;99994.16;;;-4.32;69.88
57847;BME280;43675;50.030;21.952;2023-02-28T00:46:06;99993.39;;;-4.34;69.82
57847;BME280;43675;50.030;21.952;2023-02-28T00:48:33;99992.17;;;-4.37;69.87
57847;BME280;43675;50.030;21.952;2023-02-28T00:51:00;99996.15;;;-4.42;70.10
57847;BME280;43675;50.030;21.952;2023-02-28T00:53:27;99992.38;;;-4.46;70.22
57847;BME280;43675;50.030;21.952;2023-02-28T00:55:53;99985.94;;;-4.50;70.45
57847;BME280;43675;50.030;21.952;2023-02-28T00:58:20;99990.27;;;-4.52;70.54
57847;BME280;43675;50.030;21.952;2023-02-28T01:00:46;99995.11;;;-4.54;70.70
57847;BME280;43675;50.030;21.952;2023-02-28T01:03:13;99992.25;;;-4.56;70.86
57847;BME280;43675;50.030;21.952;2023-02-28T01:05:40;99992.86;;;-4.58;70.97
57847;BME280;43675;50.030;21.952;2023-02-28T01:08:07;99994.55;;;-4.60;71.18
57847;BME280;43675;50.030;21.952;2023-02-28T01:10:33;99994.23;;;-4.64;71.02
57847;BME280;43675;50.030;21.952;2023-02-28T01:13:00;99992.96;;;-4.68;71.12
57847;BME280;43675;50.030;21.952;2023-02-28T01:15:26;99996.02;;;-4.73;71.32
57847;BME280;43675;50.030;21.952;2023-02-28T01:17:53;99992.96;;;-4.78;71.37
57847;BME280;43675;50.030;21.952;2023-02-28T01:20:20;99997.54;;;-4.82;71.38
57847;BME280;43675;50.030;21.952;2023-02-28T01:22:46;99999.70;;;-4.86;71.53
57847;BME280;43675;50.030;21.952;2023-02-28T01:25:13;100003.44;;;-4.90;71.61
57847;BME280;43675;50.030;21.952;2023-02-28T01:27:40;100002.24;;;-4.94;71.70
57847;BME280;43675;50.030;21.952;2023-02-28T01:30:08;100000.81;;;-4.96;71.88
57847;BME280;43675;50.030;21.952;2023-02-28T01:32:36;100001.23;;;-4.97;72.15
57847;BME280;43675;50.030;21.952;2023-02-28T01:35:03;100005.17;;;-4.96;72.28
57847;BME280;43675;50.030;21.952;2023-02-28T01:37:30;100011.48;;;-4.97;72.24
57847;BME280;43675;50.030;21.952;2023-02-28T01:39:56;100013.86;;;-4.99;72.23
57847;BME280;43675;50.030;21.952;2023-02-28T01:42:23;100018.16;;;-5.00;72.45
57847;BME280;43675;50.030;21.952;2023-02-28T01:45:04;100010.69;;;-5.01;72.54
57847;BME280;43675;50.030;21.952;2023-02-28T01:47:35;100007.65;;;-5.00;72.57
57847;BME280;43675;50.030;21.952;2023-02-28T01:50:07;100004.52;;;-5.00;72.71
57847;BME280;43675;50.030;21.952;2023-02-28T01:52:36;100005.85;;;-4.99;72.80
57847;BME280;43675;50.030;21.952;2023-02-28T01:55:06;100002.87;;;-4.99;72.91
57847;BME280;43675;50.030;21.952;2023-02-28T01:57:40;100006.90;;;-4.99;72.90
57847;BME280;43675;50.030;21.952;2023-02-28T02:02:37;100014.05;;;-5.02;73.11
57847;BME280;43675;50.030;21.952;2023-02-28T02:05:11;100019.95;;;-5.04;73.02
57847;BME280;43675;50.030;21.952;2023-02-28T02:07:40;100020.34;;;-5.09;73.11
57847;BME280;43675;50.030;21.952;2023-02-28T02:10:19;100025.66;;;-5.10;73.28
57847;BME280;43675;50.030;21.952;2023-02-28T02:13:00;100020.91;;;-5.13;73.32
57847;BME280;43675;50.030;21.952;2023-02-28T02:34:45;100013.92;;;-5.25;74.04
57847;BME280;43675;50.030;21.952;2023-02-28T02:37:19;100007.23;;;-5.27;74.02
57847;BME280;43675;50.030;21.952;2023-02-28T02:40:21;100005.16;;;-5.28;74.13
57847;BME280;43675;50.030;21.952;2023-02-28T02:43:03;100001.55;;;-5.25;74.25
57847;BME280;43675;50.030;21.952;2023-02-28T02:45:34;99996.39;;;-5.17;74.83
57847;BME280;43675;50.030;21.952;2023-02-28T02:48:07;99993.61;;;-5.08;75.00
57847;BME280;43675;50.030;21.952;2023-02-28T02:50:51;99990.59;;;-5.01;75.31
57847;BME280;43675;50.030;21.952;2023-02-28T02:53:24;99987.23;;;-4.94;75.28
57847;BME280;43675;50.030;21.952;2023-02-28T02:55:53;99992.53;;;-4.89;75.38
57847;BME280;43675;50.030;21.952;2023-02-28T02:58:24;99993.25;;;-4.86;75.43
57847;BME280;43675;50.030;21.952;2023-02-28T03:00:56;99997.17;;;-4.85;75.50
57847;BME280;43675;50.030;21.952;2023-02-28T03:03:24;99995.38;;;-4.84;75.52
57847;BME280;43675;50.030;21.952;2023-02-28T03:05:51;99997.36;;;-4.82;75.34
57847;BME280;43675;50.030;21.952;2023-02-28T03:08:17;99996.20;;;-4.83;75.43
57847;BME280;43675;50.030;21.952;2023-02-28T03:10:47;99995.14;;;-4.83;75.44
57847;BME280;43675;50.030;21.952;2023-02-28T03:21:40;99998.81;;;-4.95;74.92
57847;BME280;43675;50.030;21.952;2023-02-28T03:27:05;100001.31;;;-5.05;74.65
57847;BME280;43675;50.030;21.952;2023-02-28T03:29:37;100005.49;;;-5.11;74.61
57847;BME280;43675;50.030;21.952;2023-02-28T03:32:18;100010.02;;;-5.14;74.58
57847;BME280;43675;50.030;21.952;2023-02-28T03:34:53;100009.17;;;-5.18;74.46
57847;BME280;43675;50.030;21.952;2023-02-28T03:37:24;100015.60;;;-5.21;74.34
57847;BME280;43675;50.030;21.952;2023-02-28T03:40:00;100020.11;;;-5.27;74.25
57847;BME280;43675;50.030;21.952;2023-02-28T03:42:29;100017.96;;;-5.35;74.24
57847;BME280;43675;50.030;21.952;2023-02-28T03:45:01;100013.11;;;-5.42;74.19
57847;BME280;43675;50.030;21.952;2023-02-28T03:47:38;100019.02;;;-5.49;74.14
57847;BME280;43675;50.030;21.952;2023-02-28T03:50:17;100018.61;;;-5.54;74.22
57847;BME280;43675;50.030;21.952;2023-02-28T03:52:49;100023.45;;;-5.56;74.28
57847;BME280;43675;50.030;21.952;2023-02-28T03:55:17;100027.75;;;-5.59;74.56
57847;BME280;43675;50.030;21.952;2023-02-28T03:57:59;100024.00;;;-5.57;74.61
57847;BME280;43675;50.030;21.952;2023-02-28T04:00:31;100023.59;;;-5.56;74.74
57847;BME280;43675;50.030;21.952;2023-02-28T04:03:01;100020.43;;;-5.52;74.64
57847;BME280;43675;50.030;21.952;2023-02-28T04:05:29;100017.52;;;-5.50;74.66
57847;BME280;43675;50.030;21.952;2023-02-28T04:08:06;100016.34;;;-5.47;74.80
57847;BME280;43675;50.030;21.952;2023-02-28T04:10:34;100016.95;;;-5.42;74.65
57847;BME280;43675;50.030;21.952;2023-02-28T04:13:00;100013.80;;;-5.39;74.65
57847;BME280;43675;50.030;21.952;2023-02-28T04:15:27;100011.92;;;-5.24;74.43
57847;BME280;43675;50.030;21.952;2023-02-28T04:17:53;100015.27;;;-5.14;73.99
57847;BME280;43675;50.030;21.952;2023-02-28T04:20:20;100014.02;;;-5.24;74.10
57847;BME280;43675;50.030;21.952;2023-02-28T04:22:46;100012.02;;;-5.32;74.22
57847;BME280;43675;50.030;21.952;2023-02-28T04:25:13;100015.33;;;-5.38;74.30
57847;BME280;43675;50.030;21.952;2023-02-28T04:27:40;100018.59;;;-5.44;74.18
57847;BME280;43675;50.030;21.952;2023-02-28T04:30:07;100016.64;;;-5.52;74.29
57847;BME280;43675;50.030;21.952;2023-02-28T04:32:34;100023.05;;;-5.58;74.47
57847;BME280;43675;50.030;21.952;2023-02-28T04:35:00;100024.55;;;-5.64;74.56
57847;BME280;43675;50.030;21.952;2023-02-28T04:37:27;100026.19;;;-5.69;74.60
57847;BME280;43675;50.030;21.952;2023-02-28T04:39:53;100029.05;;;-5.73;74.65
57847;BME280;43675;50.030;21.952;2023-02-28T04:42:20;100033.33;;;-5.75;74.77
57847;BME280;43675;50.030;21.952;2023-02-28T04:44:47;100026.59;;;-5.76;74.64
57847;BME280;43675;50.030;21.952;2023-02-28T04:47:13;100027.09;;;-5.79;74.54
57847;BME280;43675;50.030;21.952;2023-02-28T04:49:40;100030.63;;;-5.80;74.72
57847;BME280;43675;50.030;21.952;2023-02-28T04:52:06;100026.84;;;-5.81;74.65
57847;BME280;43675;50.030;21.952;2023-02-28T04:54:33;100026.67;;;-5.81;74.73
57847;BME280;43675;50.030;21.952;2023-02-28T04:56:59;100030.19;;;-5.82;74.82
57847;BME280;43675;50.030;21.952;2023-02-28T04:59:26;100031.64;;;-5.83;74.96
57847;BME280;43675;50.030;21.952;2023-02-28T05:01:53;100031.29;;;-5.83;74.99
57847;BME280;43675;50.030;21.952;2023-02-28T05:04:19;100033.98;;;-5.81;75.19
57847;BME280;43675;50.030;21.952;2023-02-28T05:06:46;100036.17;;;-5.80;75.22
57847;BME280;43675;50.030;21.952;2023-02-28T05:09:12;100040.95;;;-5.81;75.15
57847;BME280;43675;50.030;21.952;2023-02-28T05:11:39;100040.91;;;-5.83;75.17
57847;BME280;43675;50.030;21.952;2023-02-28T05:14:12;100047.69;;;-5.86;75.30
57847;BME280;43675;50.030;21.952;2023-02-28T05:16:39;100049.69;;;-5.91;75.13
57847;BME280;43675;50.030;21.952;2023-02-28T05:19:06;100056.08;;;-5.96;75.08
57847;BME280;43675;50.030;21.952;2023-02-28T05:21:38;100060.05;;;-6.03;74.97
57847;BME280;43675;50.030;21.952;2023-02-28T05:24:10;100058.72;;;-6.07;74.94
57847;BME280;43675;50.030;21.952;2023-02-28T05:26:39;100057.45;;;-6.10;75.03
57847;BME280;43675;50.030;21.952;2023-02-28T05:29:06;100054.74;;;-6.11;75.17
57847;BME280;43675;50.030;21.952;2023-02-28T05:31:33;100060.17;;;-6.11;75.40
57847;BME280;43675;50.030;21.952;2023-02-28T05:34:00;100061.73;;;-6.12;75.57
57847;BME280;43675;50.030;21.952;2023-02-28T05:36:27;100063.39;;;-6.10;75.58
57847;BME280;43675;50.030;21.952;2023-02-28T05:38:53;100063.72;;;-6.10;75.78
57847;BME280;43675;50.030;21.952;2023-02-28T05:41:20;100062.33;;;-6.10;75.67
57847;BME280;43675;50.030;21.952;2023-02-28T05:43:47;100067.77;;;-6.10;75.69
57847;BME280;43675;50.030;21.952;2023-02-28T05:46:14;100074.73;;;-6.10;75.76
57847;BME280;43675;50.030;21.952;2023-02-28T05:48:42;100076.10;;;-6.10;75.63
57847;BME280;43675;50.030;21.952;2023-02-28T05:51:09;100078.46;;;-6.12;75.82
57847;BME280;43675;50.030;21.952;2023-02-28T05:53:36;100080.45;;;-6.13;75.60
57847;BME280;43675;50.030;21.952;2023-02-28T05:56:03;100084.64;;;-6.14;75.80
57847;BME280;43675;50.030;21.952;2023-02-28T05:58:30;100088.40;;;-6.12;75.92
57847;BME280;43675;50.030;21.952;2023-02-28T06:01:19;100089.38;;;-6.07;75.86
57847;BME280;43675;50.030;21.952;2023-02-28T06:03:46;100089.02;;;-6.00;76.06
57847;BME280;43675;50.030;21.952;2023-02-28T06:06:13;100092.00;;;-5.90;76.03
57847;BME280;43675;50.030;21.952;2023-02-28T06:08:39;100089.98;;;-5.85;76.16
57847;BME280;43675;50.030;21.952;2023-02-28T06:11:06;100097.62;;;-5.78;76.37
57847;BME280;43675;50.030;21.952;2023-02-28T06:13:32;100099.52;;;-5.70;76.32
57847;BME280;43675;50.030;21.952;2023-02-28T06:16:02;100105.55;;;-5.62;76.37
57847;BME280;43675;50.030;21.952;2023-02-28T06:18:29;100108.82;;;-5.55;76.40
57847;BME280;43675;50.030;21.952;2023-02-28T06:20:55;100113.96;;;-5.46;76.37
57847;BME280;43675;50.030;21.952;2023-02-28T06:23:22;100113.23;;;-5.39;76.58
57847;BME280;43675;50.030;21.952;2023-02-28T06:25:49;100111.76;;;-5.31;76.69
57847;BME280;43675;50.030;21.952;2023-02-28T06:28:16;100113.08;;;-5.23;76.63
57847;BME280;43675;50.030;21.952;2023-02-28T06:30:42;100112.72;;;-5.16;76.71
57847;BME280;43675;50.030;21.952;2023-02-28T06:33:09;100116.42;;;-5.07;76.84
57847;BME280;43675;50.030;21.952;2023-02-28T06:35:35;100116.77;;;-4.97;77.01
57847;BME280;43675;50.030;21.952;2023-02-28T06:38:02;100119.73;;;-4.88;77.15
57847;BME280;43675;50.030;21.952;2023-02-28T06:40:28;100117.07;;;-4.77;77.15
57847;BME280;43675;50.030;21.952;2023-02-28T06:42:55;100122.13;;;-4.67;77.16
57847;BME280;43675;50.030;21.952;2023-02-28T06:45:21;100120.96;;;-4.59;77.12
57847;BME280;43675;50.030;21.952;2023-02-28T06:47:48;100122.58;;;-4.50;77.11
57847;BME280;43675;50.030;21.952;2023-02-28T06:50:14;100123.87;;;-4.39;77.10
57847;BME280;43675;50.030;21.952;2023-02-28T06:52:41;100127.89;;;-4.27;77.09
57847;BME280;43675;50.030;21.952;2023-02-28T06:55:08;100128.87;;;-4.11;76.99
57847;BME280;43675;50.030;21.952;2023-02-28T06:57:36;100128.67;;;-3.92;77.11
57847;BME280;43675;50.030;21.952;2023-02-28T07:00:08;100128.48;;;-3.71;76.82
57847;BME280;43675;50.030;21.952;2023-02-28T07:02:36;100122.92;;;-3.51;76.81
57847;BME280;43675;50.030;21.952;2023-02-28T07:05:05;100115.50;;;-3.18;76.33
57847;BME280;43675;50.030;21.952;2023-02-28T07:07:31;100111.52;;;-2.93;75.88
57847;BME280;43675;50.030;21.952;2023-02-28T07:09:58;100115.24;;;-2.77;75.75
57847;BME280;43675;50.030;21.952;2023-02-28T07:12:25;100114.04;;;-2.69;75.78
57847;BME280;43675;50.030;21.952;2023-02-28T07:14:52;100116.03;;;-2.62;75.51
57847;BME280;43675;50.030;21.952;2023-02-28T07:17:19;100117.49;;;-2.55;75.53
57847;BME280;43675;50.030;21.952;2023-02-28T07:19:45;100119.97;;;-2.47;75.33
57847;BME280;43675;50.030;21.952;2023-02-28T07:22:12;100119.70;;;-2.37;75.25
57847;BME280;43675;50.030;21.952;2023-02-28T07:24:39;100120.30;;;-2.30;75.09
57847;BME280;43675;50.030;21.952;2023-02-28T07:27:05;100121.31;;;-2.24;75.03
57847;BME280;43675;50.030;21.952;2023-02-28T07:29:32;100118.37;;;-2.19;74.86
57847;BME280;43675;50.030;21.952;2023-02-28T07:31:58;100119.45;;;-2.17;74.54
57847;BME280;43675;50.030;21.952;2023-02-28T07:34:25;100118.33;;;-2.16;74.56
57847;BME280;43675;50.030;21.952;2023-02-28T07:36:54;100117.35;;;-2.14;74.50
57847;BME280;43675;50.030;21.952;2023-02-28T07:39:21;100118.40;;;-2.12;74.26
57847;BME280;43675;50.030;21.952;2023-02-28T07:41:48;100118.95;;;-2.10;74.13
57847;BME280;43675;50.030;21.952;2023-02-28T07:44:14;100115.08;;;-2.07;74.00
57847;BME280;43675;50.030;21.952;2023-02-28T07:46:41;100110.98;;;-2.03;74.14
57847;BME280;43675;50.030;21.952;2023-02-28T07:49:08;100109.25;;;-1.98;74.04
57847;BME280;43675;50.030;21.952;2023-02-28T07:51:34;100108.81;;;-1.94;73.57
57847;BME280;43675;50.030;21.952;2023-02-28T07:54:01;100109.80;;;-1.91;73.49
57847;BME280;43675;50.030;21.952;2023-02-28T07:56:27;100105.74;;;-1.85;73.47
57847;BME280;43675;50.030;21.952;2023-02-28T07:58:54;100105.35;;;-1.76;73.50
57847;BME280;43675;50.030;21.952;2023-02-28T08:01:21;100101.98;;;-1.68;73.37
57847;BME280;43675;50.030;21.952;2023-02-28T08:03:47;100103.82;;;-1.62;73.11
57847;BME280;43675;50.030;21.952;2023-02-28T08:06:20;100107.80;;;-1.56;72.74
57847;BME280;43675;50.030;21.952;2023-02-28T08:08:47;100108.34;;;-1.46;72.85
57847;BME280;43675;50.030;21.952;2023-02-28T08:11:14;100109.84;;;-1.34;72.41
57847;BME280;43675;50.030;21.952;2023-02-28T08:13:41;100111.95;;;-1.24;72.21
57847;BME280;43675;50.030;21.952;2023-02-28T08:16:08;100117.83;;;-1.15;71.92
57847;BME280;43675;50.030;21.952;2023-02-28T08:18:35;100113.02;;;-1.07;71.54
57847;BME280;43675;50.030;21.952;2023-02-28T08:21:08;100117.91;;;-1.02;71.21
57847;BME280;43675;50.030;21.952;2023-02-28T08:23:35;100119.88;;;-0.94;71.03
57847;BME280;43675;50.030;21.952;2023-02-28T08:26:02;100121.29;;;-0.86;70.55
57847;BME280;43675;50.030;21.952;2023-02-28T08:28:29;100118.97;;;-0.81;70.13
57847;BME280;43675;50.030;21.952;2023-02-28T08:30:56;100116.49;;;-0.79;69.99
57847;BME280;43675;50.030;21.952;2023-02-28T08:33:23;100118.77;;;-0.76;69.69
57847;BME280;43675;50.030;21.952;2023-02-28T08:35:54;100117.52;;;-0.73;69.74
57847;BME280;43675;50.030;21.952;2023-02-28T08:38:22;100116.69;;;-0.71;69.47
57847;BME280;43675;50.030;21.952;2023-02-28T08:40:49;100117.29;;;-0.70;69.36
57847;BME280;43675;50.030;21.952;2023-02-28T08:43:16;100118.81;;;-0.72;69.14
57847;BME280;43675;50.030;21.952;2023-02-28T08:45:42;100115.51;;;-0.74;68.95
57847;BME280;43675;50.030;21.952;2023-02-28T08:48:09;100113.95;;;-0.75;69.01
57847;BME280;43675;50.030;21.952;2023-02-28T08:50:35;100112.55;;;-0.75;69.14
57847;BME280;43675;50.030;21.952;2023-02-28T08:53:02;100112.66;;;-0.72;69.07
57847;BME280;43675;50.030;21.952;2023-02-28T08:55:28;100112.82;;;-0.66;68.80
57847;BME280;43675;50.030;21.952;2023-02-28T08:57:55;100110.23;;;-0.60;68.70
57847;BME280;43675;50.030;21.952;2023-02-28T09:00:22;100111.79;;;-0.50;68.68
57847;BME280;43675;50.030;21.952;2023-02-28T09:02:49;100113.52;;;-0.37;68.42
57847;BME280;43675;50.030;21.952;2023-02-28T09:05:15;100115.05;;;-0.27;68.00
57847;BME280;43675;50.030;21.952;2023-02-28T09:07:42;100111.35;;;-0.17;67.76
57847;BME280;43675;50.030;21.952;2023-02-28T09:10:09;100112.95;;;-0.10;67.31
57847;BME280;43675;50.030;21.952;2023-02-28T09:12:36;100106.89;;;-0.05;67.12
57847;BME280;43675;50.030;21.952;2023-02-28T09:15:03;100104.73;;;0.03;66.84
57847;BME280;43675;50.030;21.952;2023-02-28T09:17:29;100109.23;;;0.14;66.66
57847;BME280;43675;50.030;21.952;2023-02-28T09:19:57;100108.31;;;0.26;66.57
57847;BME280;43675;50.030;21.952;2023-02-28T09:22:24;100105.98;;;0.38;66.14
57847;BME280;43675;50.030;21.952;2023-02-28T09:24:50;100103.85;;;0.47;65.76
57847;BME280;43675;50.030;21.952;2023-02-28T09:27:17;100102.06;;;0.55;65.37
57847;BME280;43675;50.030;21.952;2023-02-28T09:29:44;100102.11;;;0.56;64.98
57847;BME280;43675;50.030;21.952;2023-02-28T09:32:10;100101.70;;;0.57;64.67
57847;BME280;43675;50.030;21.952;2023-02-28T09:34:37;100098.36;;;0.57;64.57
57847;BME280;43675;50.030;21.952;2023-02-28T09:37:03;100104.86;;;0.55;64.34
57847;BME280;43675;50.030;21.952;2023-02-28T09:39:30;100106.33;;;0.57;64.46
57847;BME280;43675;50.030;21.952;2023-02-28T09:41:57;100103.02;;;0.61;64.34
57847;BME280;43675;50.030;21.952;2023-02-28T09:44:43;100102.55;;;0.67;64.26
57847;BME280;43675;50.030;21.952;2023-02-28T09:47:34;100104.70;;;0.75;64.20
57847;BME280;43675;50.030;21.952;2023-02-28T09:52:48;100107.05;;;0.83;64.08
57847;BME280;43675;50.030;21.952;2023-02-28T09:57:45;100108.11;;;0.88;63.75
57847;BME280;43675;50.030;21.952;2023-02-28T10:08:50;100103.60;;;0.80;63.20
57847;BME280;43675;50.030;21.952;2023-02-28T10:11:19;100100.20;;;0.92;63.53
57847;BME280;43675;50.030;21.952;2023-02-28T10:16:24;100097.68;;;1.17;63.05
57847;BME280;43675;50.030;21.952;2023-02-28T10:18:59;100093.50;;;1.28;62.66
57847;BME280;43675;50.030;21.952;2023-02-28T10:22:10;100091.54;;;1.39;62.28
57847;BME280;43675;50.030;21.952;2023-02-28T10:27:17;100079.80;;;1.58;61.86
57847;BME280;43675;50.030;21.952;2023-02-28T10:29:47;100076.30;;;1.56;61.48
57847;BME280;43675;50.030;21.952;2023-02-28T10:32:17;100077.64;;;1.54;61.65
57847;BME280;43675;50.030;21.952;2023-02-28T10:34:45;100074.88;;;1.53;61.73
57847;BME280;43675;50.030;21.952;2023-02-28T10:37:19;100069.73;;;1.52;61.35
57847;BME280;43675;50.030;21.952;2023-02-28T10:39:46;100068.20;;;1.51;61.38
57847;BME280;43675;50.030;21.952;2023-02-28T10:44:49;100059.49;;;1.48;60.74
57847;BME280;43675;50.030;21.952;2023-02-28T10:47:17;100059.10;;;1.44;60.64
57847;BME280;43675;50.030;21.952;2023-02-28T10:49:48;100054.02;;;1.43;60.80
57847;BME280;43675;50.030;21.952;2023-02-28T10:52:33;100051.31;;;1.44;60.57
57847;BME280;43675;50.030;21.952;2023-02-28T10:55:34;100048.63;;;1.42;60.64
57847;BME280;43675;50.030;21.952;2023-02-28T10:58:01;100042.77;;;1.41;60.60
57847;BME280;43675;50.030;21.952;2023-02-28T11:00:33;100042.08;;;1.45;60.48
57847;BME280;43675;50.030;21.952;2023-02-28T11:03:01;100041.48;;;1.50;60.62
57847;BME280;43675;50.030;21.952;2023-02-28T11:05:34;100038.44;;;1.57;60.60
57847;BME280;43675;50.030;21.952;2023-02-28T11:08:12;100036.00;;;1.65;60.52
57847;BME280;43675;50.030;21.952;2023-02-28T11:11:28;100033.15;;;1.76;60.49
57847;BME280;43675;50.030;21.952;2023-02-28T11:13:36;100027.27;;;1.89;60.35
57847;BME280;43675;50.030;21.952;2023-02-28T11:16:09;100027.17;;;2.04;59.94
57847;BME280;43675;50.030;21.952;2023-02-28T11:19:03;100023.79;;;2.12;59.66
57847;BME280;43675;50.030;21.952;2023-02-28T11:21:36;100023.52;;;2.19;59.70
57847;BME280;43675;50.030;21.952;2023-02-28T11:26:50;100024.29;;;2.20;58.99
57847;BME280;43675;50.030;21.952;2023-02-28T11:29:19;100026.02;;;2.17;58.97
57847;BME280;43675;50.030;21.952;2023-02-28T11:34:42;100019.25;;;2.18;59.06
57847;BME280;43675;50.030;21.952;2023-02-28T11:37:14;100017.80;;;2.24;59.14
57847;BME280;43675;50.030;21.952;2023-02-28T11:39:42;100020.88;;;2.33;59.27
57847;BME280;43675;50.030;21.952;2023-02-28T11:48:38;100022.37;;;2.70;58.74
57847;BME280;43675;50.030;21.952;2023-02-28T11:51:21;100017.50;;;2.87;58.64
57847;BME280;43675;50.030;21.952;2023-02-28T11:56:39;100020.55;;;3.26;58.25
57847;BME280;43675;50.030;21.952;2023-02-28T12:05:10;100019.96;;;3.94;57.23
57847;BME280;43675;50.030;21.952;2023-02-28T12:10:26;100008.84;;;4.33;56.77
57847;BME280;43675;50.030;21.952;2023-02-28T12:18:29;100007.12;;;4.64;56.15
57847;BME280;43675;50.030;21.952;2023-02-28T12:31:36;99999.38;;;4.17;56.01
57847;BME280;43675;50.030;21.952;2023-02-28T12:34:10;99996.52;;;4.02;55.89
57847;BME280;43675;50.030;21.952;2023-02-28T12:36:41;99996.33;;;3.91;56.08
57847;BME280;43675;50.030;21.952;2023-02-28T12:39:30;99997.53;;;3.79;56.21
57847;BME280;43675;50.030;21.952;2023-02-28T12:42:05;99997.93;;;3.67;56.24
57847;BME280;43675;50.030;21.952;2023-02-28T12:44:42;100000.23;;;3.56;56.26
57847;BME280;43675;50.030;21.952;2023-02-28T12:47:16;99999.19;;;3.46;56.05
57847;BME280;43675;50.030;21.952;2023-02-28T12:49:50;99994.96;;;3.40;56.04
57847;BME280;43675;50.030;21.952;2023-02-28T12:58:37;99990.08;;;3.39;55.96
57847;BME280;43675;50.030;21.952;2023-02-28T13:09:10;99981.52;;;3.08;56.14
57847;BME280;43675;50.030;21.952;2023-02-28T13:11:49;99980.42;;;3.01;56.29
57847;BME280;43675;50.030;21.952;2023-02-28T13:14:35;99979.10;;;2.97;56.35
57847;BME280;43675;50.030;21.952;2023-02-28T13:19:43;99972.88;;;3.08;56.32
57847;BME280;43675;50.030;21.952;2023-02-28T13:22:40;99968.17;;;3.15;56.20
57847;BME280;43675;50.030;21.952;2023-02-28T13:27:53;99964.19;;;3.28;56.08
57847;BME280;43675;50.030;21.952;2023-02-28T13:38:47;99958.73;;;3.04;55.76
57847;BME280;43675;50.030;21.952;2023-02-28T13:46:26;99949.67;;;3.10;55.80
57847;BME280;43675;50.030;21.952;2023-02-28T13:48:54;99949.06;;;3.13;55.38
57847;BME280;43675;50.030;21.952;2023-02-28T13:51:40;99945.79;;;3.18;55.31
57847;BME280;43675;50.030;21.952;2023-02-28T13:54:24;99945.17;;;3.25;55.40
57847;BME280;43675;50.030;21.952;2023-02-28T13:57:11;99935.67;;;3.34;55.37
57847;BME280;43675;50.030;21.952;2023-02-28T14:05:20;99928.44;;;3.48;54.66
57847;BME280;43675;50.030;21.952;2023-02-28T14:07:50;99931.90;;;3.52;54.76
57847;BME280;43675;50.030;21.952;2023-02-28T14:10:28;99927.98;;;3.58;54.88
57847;BME280;43675;50.030;21.952;2023-02-28T14:12:59;99929.36;;;3.62;54.70
57847;BME280;43675;50.030;21.952;2023-02-28T14:20:56;99931.45;;;3.55;54.47
57847;BME280;43675;50.030;21.952;2023-02-28T14:23:34;99933.15;;;3.42;54.52
57847;BME280;43675;50.030;21.952;2023-02-28T14:26:06;99933.89;;;3.26;54.46
57847;BME280;43675;50.030;21.952;2023-02-28T14:31:25;99936.48;;;2.92;54.88
57847;BME280;43675;50.030;21.952;2023-02-28T14:36:48;99934.77;;;2.57;55.55
57847;BME280;43675;50.030;21.952;2023-02-28T14:39:22;99933.21;;;2.43;55.56
57847;BME280;43675;50.030;21.952;2023-02-28T14:41:50;99936.10;;;2.30;55.73
57847;BME280;43675;50.030;21.952;2023-02-28T14:44:25;99935.50;;;2.18;55.65
57847;BME280;43675;50.030;21.952;2023-02-28T14:46:55;99935.73;;;2.06;55.96
57847;BME280;43675;50.030;21.952;2023-02-28T14:49:32;99932.27;;;1.95;56.04
57847;BME280;43675;50.030;21.952;2023-02-28T14:54:32;99929.81;;;1.80;56.11
57847;BME280;43675;50.030;21.952;2023-02-28T14:56:59;99936.13;;;1.74;56.51
57847;BME280;43675;50.030;21.952;2023-02-28T14:59:34;99937.55;;;1.67;56.46
57847;BME280;43675;50.030;21.952;2023-02-28T15:04:40;99930.17;;;1.56;56.74
57847;BME280;43675;50.030;21.952;2023-02-28T15:07:11;99928.55;;;1.53;56.94
57847;BME280;43675;50.030;21.952;2023-02-28T15:09:41;99929.90;;;1.47;56.89
57847;BME280;43675;50.030;21.952;2023-02-28T15:12:13;99928.40;;;1.41;57.00
57847;BME280;43675;50.030;21.952;2023-02-28T15:14:43;99931.05;;;1.37;57.07
57847;BME280;43675;50.030;21.952;2023-02-28T15:17:21;99932.33;;;1.35;56.86
57847;BME280;43675;50.030;21.952;2023-02-28T15:19:52;99928.11;;;1.30;57.08
57847;BME280;43675;50.030;21.952;2023-02-28T15:22:34;99925.60;;;1.26;56.89
57847;BME280;43675;50.030;21.952;2023-02-28T15:25:03;99924.14;;;1.21;57.19
57847;BME280;43675;50.030;21.952;2023-02-28T15:27:33;99922.80;;;1.18;57.32
57847;BME280;43675;50.030;21.952;2023-02-28T15:30:07;99925.09;;;1.11;57.33